sensor_id;sensor_type;location;lat;lon;timestamp;P1;durP1;ratioP1;P2;durP2;ratioP2
7707;SDS011;3896;48.758;8.888;2023-05-16T00:01:10;9.87;;;7.77;;
7707;SDS011;3896;48.758;8.888;2023-05-16T00:03:36;10.17;;;8.70;;
7707;SDS011;3896;48.758;8.888;2023-05-16T00:06:02;10.23;;;8.63;;
7707;SDS011;3896;48.758;8.888;2023-05-16T00:08:29;10.90;;;9.07;;
7707;SDS011;3896;48.758;8.888;2023-05-16T00:10:55;10.27;;;8.37;;
7707;SDS011;3896;48.758;8.888;2023-05-16T00:13:20;9.90;;;7.87;;
7707;SDS011;3896;48.758;8.888;2023-05-16T00:15:52;10.97;;;8.60;;
7707;SDS011;3896;48.758;8.888;2023-05-16T00:18:19;12.80;;;8.17;;
7707;SDS011;3896;48.758;8.888;2023-05-16T00:20:46;10.00;;;8.50;;
7707;SDS011;3896;48.758;8.888;2023-05-16T00:23:12;11.37;;;9.03;;
7707;SDS011;3896;48.758;8.888;2023-05-16T00:25:38;9.90;;;7.73;;
7707;SDS011;3896;48.758;8.888;2023-05-16T00:28:04;11.30;;;8.70;;
7707;SDS011;3896;48.758;8.888;2023-05-16T00:30:30;11.00;;;9.43;;
7707;SDS011;3896;48.758;8.888;2023-05-16T00:32:56;11.63;;;9.43;;
7707;SDS011;3896;48.758;8.888;2023-05-16T00:35:22;11.40;;;9.80;;
7707;SDS011;3896;48.758;8.888;2023-05-16T00:37:48;13.17;;;10.57;;
7707;SDS011;3896;48.758;8.888;2023-05-16T00:40:14;11.13;;;9.60;;
7707;SDS011;3896;48.758;8.888;2023-05-16T00:42:40;12.60;;;10.53;;
7707;SDS011;3896;48.758;8.888;2023-05-16T00:45:05;14.03;;;10.17;;
7707;SDS011;3896;48.758;8.888;2023-05-16T00:47:32;15.40;;;10.93;;
7707;SDS011;3896;48.758;8.888;2023-05-16T00:49:57;13.03;;;10.00;;
7707;SDS011;3896;48.758;8.888;2023-05-16T00:52:23;14.57;;;11.37;;
7707;SDS011;3896;48.758;8.888;2023-05-16T00:54:49;14.30;;;11.23;;
7707;SDS011;3896;48.758;8.888;2023-05-16T00:57:15;16.27;;;10.83;;
7707;SDS011;3896;48.758;8.888;2023-05-16T00:59:41;13.60;;;10.63;;
7707;SDS011;3896;48.758;8.888;2023-05-16T01:02:10;15.40;;;11.70;;
7707;SDS011;3896;48.758;8.888;2023-05-16T01:04:36;14.43;;;11.27;;
7707;SDS011;3896;48.758;8.888;2023-05-16T01:07:02;13.90;;;11.73;;
7707;SDS011;3896;48.758;8.888;2023-05-16T01:09:28;14.70;;;11.67;;
7707;SDS011;3896;48.758;8.888;2023-05-16T01:17:46;18.90;;;13.30;;
7707;SDS011;3896;48.758;8.888;2023-05-16T01:20:16;22.07;;;13.43;;
7707;SDS011;3896;48.758;8.888;2023-05-16T01:22:51;18.97;;;13.87;;
7707;SDS011;3896;48.758;8.888;2023-05-16T01:28:09;21.97;;;14.50;;
7707;SDS011;3896;48.758;8.888;2023-05-16T01:30:38;21.73;;;15.53;;
7707;SDS011;3896;48.758;8.888;2023-05-16T01:33:05;23.00;;;14.97;;
7707;SDS011;3896;48.758;8.888;2023-05-16T01:35:30;20.97;;;14.60;;
7707;SDS011;3896;48.758;8.888;2023-05-16T01:38:04;22.03;;;15.17;;
7707;SDS011;3896;48.758;8.888;2023-05-16T01:40:53;26.13;;;16.87;;
7707;SDS011;3896;48.758;8.888;2023-05-16T01:43:22;25.40;;;16.13;;
7707;SDS011;3896;48.758;8.888;2023-05-16T01:45:55;24.27;;;17.07;;
7707;SDS011;3896;48.758;8.888;2023-05-16T01:48:26;25.37;;;17.63;;
7707;SDS011;3896;48.758;8.888;2023-05-16T01:50:56;27.37;;;17.80;;
7707;SDS011;3896;48.758;8.888;2023-05-16T01:53:26;28.47;;;17.60;;
7707;SDS011;3896;48.758;8.888;2023-05-16T01:55:56;25.57;;;16.90;;
7707;SDS011;3896;48.758;8.888;2023-05-16T01:58:28;25.93;;;17.03;;
7707;SDS011;3896;48.758;8.888;2023-05-16T02:01:00;29.43;;;19.13;;
7707;SDS011;3896;48.758;8.888;2023-05-16T02:03:27;27.50;;;18.07;;
7707;SDS011;3896;48.758;8.888;2023-05-16T02:05:54;32.03;;;19.87;;
7707;SDS011;3896;48.758;8.888;2023-05-16T02:08:20;29.90;;;19.63;;
7707;SDS011;3896;48.758;8.888;2023-05-16T02:10:46;30.20;;;18.97;;
7707;SDS011;3896;48.758;8.888;2023-05-16T02:13:11;32.27;;;18.67;;
7707;SDS011;3896;48.758;8.888;2023-05-16T02:15:37;27.77;;;18.07;;
7707;SDS011;3896;48.758;8.888;2023-05-16T02:18:02;32.47;;;19.57;;
7707;SDS011;3896;48.758;8.888;2023-05-16T02:20:28;32.33;;;20.70;;
7707;SDS011;3896;48.758;8.888;2023-05-16T02:22:53;30.83;;;19.80;;
7707;SDS011;3896;48.758;8.888;2023-05-16T02:25:19;33.77;;;20.93;;
7707;SDS011;3896;48.758;8.888;2023-05-16T02:27:45;31.20;;;19.47;;
7707;SDS011;3896;48.758;8.888;2023-05-16T02:30:11;36.10;;;21.40;;
7707;SDS011;3896;48.758;8.888;2023-05-16T02:32:37;36.43;;;20.97;;
7707;SDS011;3896;48.758;8.888;2023-05-16T02:35:04;30.87;;;19.17;;
7707;SDS011;3896;48.758;8.888;2023-05-16T02:37:30;33.53;;;20.83;;
7707;SDS011;3896;48.758;8.888;2023-05-16T02:39:56;34.07;;;22.30;;
7707;SDS011;3896;48.758;8.888;2023-05-16T02:42:21;34.50;;;20.47;;
7707;SDS011;3896;48.758;8.888;2023-05-16T02:44:47;37.73;;;21.47;;
7707;SDS011;3896;48.758;8.888;2023-05-16T02:47:13;34.60;;;20.67;;
7707;SDS011;3896;48.758;8.888;2023-05-16T02:49:39;37.57;;;22.03;;
7707;SDS011;3896;48.758;8.888;2023-05-16T02:52:04;38.47;;;21.83;;
7707;SDS011;3896;48.758;8.888;2023-05-16T02:54:30;35.90;;;21.90;;
7707;SDS011;3896;48.758;8.888;2023-05-16T02:56:55;45.03;;;23.77;;
7707;SDS011;3896;48.758;8.888;2023-05-16T02:59:21;40.57;;;22.70;;
7707;SDS011;3896;48.758;8.888;2023-05-16T03:01:47;40.57;;;23.57;;
7707;SDS011;3896;48.758;8.888;2023-05-16T03:04:12;39.47;;;23.13;;
7707;SDS011;3896;48.758;8.888;2023-05-16T03:06:38;39.30;;;22.77;;
7707;SDS011;3896;48.758;8.888;2023-05-16T03:09:03;37.30;;;22.43;;
7707;SDS011;3896;48.758;8.888;2023-05-16T03:11:29;37.87;;;21.80;;
7707;SDS011;3896;48.758;8.888;2023-05-16T03:13:54;41.10;;;23.57;;
7707;SDS011;3896;48.758;8.888;2023-05-16T03:16:20;41.00;;;24.40;;
7707;SDS011;3896;48.758;8.888;2023-05-16T03:18:46;43.37;;;24.80;;
7707;SDS011;3896;48.758;8.888;2023-05-16T03:21:11;43.80;;;25.10;;
7707;SDS011;3896;48.758;8.888;2023-05-16T03:23:37;44.27;;;25.00;;
7707;SDS011;3896;48.758;8.888;2023-05-16T03:26:02;44.00;;;24.83;;
7707;SDS011;3896;48.758;8.888;2023-05-16T03:28:28;45.33;;;26.00;;
7707;SDS011;3896;48.758;8.888;2023-05-16T03:30:54;42.10;;;24.03;;
7707;SDS011;3896;48.758;8.888;2023-05-16T03:33:19;42.20;;;23.93;;
7707;SDS011;3896;48.758;8.888;2023-05-16T03:35:45;44.50;;;25.07;;
7707;SDS011;3896;48.758;8.888;2023-05-16T03:38:11;46.90;;;26.87;;
7707;SDS011;3896;48.758;8.888;2023-05-16T03:40:36;42.27;;;25.10;;
7707;SDS011;3896;48.758;8.888;2023-05-16T03:43:02;45.00;;;25.90;;
7707;SDS011;3896;48.758;8.888;2023-05-16T03:45:31;41.70;;;24.63;;
7707;SDS011;3896;48.758;8.888;2023-05-16T03:47:56;45.97;;;26.03;;
7707;SDS011;3896;48.758;8.888;2023-05-16T03:50:22;44.37;;;26.00;;
7707;SDS011;3896;48.758;8.888;2023-05-16T03:52:47;45.07;;;25.43;;
7707;SDS011;3896;48.758;8.888;2023-05-16T03:55:13;42.73;;;24.27;;
7707;SDS011;3896;48.758;8.888;2023-05-16T03:57:39;49.17;;;26.70;;
7707;SDS011;3896;48.758;8.888;2023-05-16T04:00:06;50.43;;;27.17;;
7707;SDS011;3896;48.758;8.888;2023-05-16T04:02:33;48.30;;;26.57;;
7707;SDS011;3896;48.758;8.888;2023-05-16T04:04:58;51.10;;;27.03;;
7707;SDS011;3896;48.758;8.888;2023-05-16T04:07:24;49.30;;;27.53;;
7707;SDS011;3896;48.758;8.888;2023-05-16T04:09:50;44.30;;;26.17;;
7707;SDS011;3896;48.758;8.888;2023-05-16T04:12:16;45.50;;;26.03;;
7707;SDS011;3896;48.758;8.888;2023-05-16T04:14:41;47.60;;;27.53;;
7707;SDS011;3896;48.758;8.888;2023-05-16T04:17:07;47.47;;;27.70;;
7707;SDS011;3896;48.758;8.888;2023-05-16T04:19:33;49.97;;;27.90;;
7707;SDS011;3896;48.758;8.888;2023-05-16T04:21:59;52.67;;;28.37;;
7707;SDS011;3896;48.758;8.888;2023-05-16T04:24:24;47.50;;;26.73;;
7707;SDS011;3896;48.758;8.888;2023-05-16T04:26:52;50.87;;;27.73;;
7707;SDS011;3896;48.758;8.888;2023-05-16T04:29:18;53.80;;;28.37;;
7707;SDS011;3896;48.758;8.888;2023-05-16T04:31:45;49.17;;;28.03;;
7707;SDS011;3896;48.758;8.888;2023-05-16T04:34:11;53.30;;;29.23;;
7707;SDS011;3896;48.758;8.888;2023-05-16T04:36:37;52.77;;;27.70;;
7707;SDS011;3896;48.758;8.888;2023-05-16T04:39:02;49.20;;;27.27;;
7707;SDS011;3896;48.758;8.888;2023-05-16T04:41:28;54.73;;;27.93;;
7707;SDS011;3896;48.758;8.888;2023-05-16T04:43:54;47.87;;;27.90;;
7707;SDS011;3896;48.758;8.888;2023-05-16T04:46:20;50.10;;;25.97;;
7707;SDS011;3896;48.758;8.888;2023-05-16T04:48:45;47.70;;;25.80;;
7707;SDS011;3896;48.758;8.888;2023-05-16T04:51:11;47.57;;;26.03;;
7707;SDS011;3896;48.758;8.888;2023-05-16T04:53:36;46.80;;;24.40;;
7707;SDS011;3896;48.758;8.888;2023-05-16T04:56:02;47.37;;;27.03;;
7707;SDS011;3896;48.758;8.888;2023-05-16T04:58:29;51.40;;;27.43;;
7707;SDS011;3896;48.758;8.888;2023-05-16T05:00:55;49.80;;;28.57;;
7707;SDS011;3896;48.758;8.888;2023-05-16T05:03:22;47.97;;;25.57;;
7707;SDS011;3896;48.758;8.888;2023-05-16T05:05:47;47.03;;;26.17;;
7707;SDS011;3896;48.758;8.888;2023-05-16T05:08:13;45.37;;;26.17;;
7707;SDS011;3896;48.758;8.888;2023-05-16T05:10:39;50.27;;;27.50;;
7707;SDS011;3896;48.758;8.888;2023-05-16T05:13:05;48.33;;;28.30;;
7707;SDS011;3896;48.758;8.888;2023-05-16T05:15:31;49.67;;;27.13;;
7707;SDS011;3896;48.758;8.888;2023-05-16T05:17:56;44.03;;;25.63;;
7707;SDS011;3896;48.758;8.888;2023-05-16T05:20:22;44.23;;;24.03;;
7707;SDS011;3896;48.758;8.888;2023-05-16T05:22:47;46.07;;;25.83;;
7707;SDS011;3896;48.758;8.888;2023-05-16T05:25:13;47.30;;;26.97;;
7707;SDS011;3896;48.758;8.888;2023-05-16T05:27:38;48.63;;;27.63;;
7707;SDS011;3896;48.758;8.888;2023-05-16T05:30:04;47.37;;;27.63;;
7707;SDS011;3896;48.758;8.888;2023-05-16T05:32:30;49.33;;;27.40;;
7707;SDS011;3896;48.758;8.888;2023-05-16T05:34:56;44.00;;;25.83;;
7707;SDS011;3896;48.758;8.888;2023-05-16T05:37:23;45.37;;;26.03;;
7707;SDS011;3896;48.758;8.888;2023-05-16T05:39:49;44.80;;;25.10;;
7707;SDS011;3896;48.758;8.888;2023-05-16T05:42:14;43.87;;;24.67;;
7707;SDS011;3896;48.758;8.888;2023-05-16T05:44:40;41.63;;;23.50;;
7707;SDS011;3896;48.758;8.888;2023-05-16T05:47:05;41.77;;;24.27;;
7707;SDS011;3896;48.758;8.888;2023-05-16T05:49:31;36.77;;;23.23;;
7707;SDS011;3896;48.758;8.888;2023-05-16T05:51:57;40.30;;;24.60;;
7707;SDS011;3896;48.758;8.888;2023-05-16T05:54:23;41.83;;;24.87;;
7707;SDS011;3896;48.758;8.888;2023-05-16T05:56:49;41.47;;;23.53;;
7707;SDS011;3896;48.758;8.888;2023-05-16T05:59:14;38.17;;;21.50;;
7707;SDS011;3896;48.758;8.888;2023-05-16T06:01:40;39.57;;;24.93;;
7707;SDS011;3896;48.758;8.888;2023-05-16T06:04:06;41.27;;;24.37;;
7707;SDS011;3896;48.758;8.888;2023-05-16T06:06:32;46.70;;;25.23;;
7707;SDS011;3896;48.758;8.888;2023-05-16T06:08:57;33.43;;;19.40;;
7707;SDS011;3896;48.758;8.888;2023-05-16T06:11:23;39.23;;;22.10;;
7707;SDS011;3896;48.758;8.888;2023-05-16T06:13:52;36.63;;;21.70;;
7707;SDS011;3896;48.758;8.888;2023-05-16T06:16:17;39.87;;;22.53;;
7707;SDS011;3896;48.758;8.888;2023-05-16T06:18:43;36.47;;;22.20;;
7707;SDS011;3896;48.758;8.888;2023-05-16T06:21:09;35.77;;;20.83;;
7707;SDS011;3896;48.758;8.888;2023-05-16T06:23:35;36.05;;;25.35;;
7707;SDS011;3896;48.758;8.888;2023-05-16T06:26:01;36.40;;;23.37;;
7707;SDS011;3896;48.758;8.888;2023-05-16T06:28:27;34.53;;;21.87;;
7707;SDS011;3896;48.758;8.888;2023-05-16T06:30:53;34.80;;;22.13;;
7707;SDS011;3896;48.758;8.888;2023-05-16T06:33:18;37.43;;;22.90;;
7707;SDS011;3896;48.758;8.888;2023-05-16T06:35:44;35.20;;;20.40;;
7707;SDS011;3896;48.758;8.888;2023-05-16T06:38:09;33.83;;;21.50;;
7707;SDS011;3896;48.758;8.888;2023-05-16T06:40:35;35.47;;;20.80;;
7707;SDS011;3896;48.758;8.888;2023-05-16T06:43:01;34.40;;;19.73;;
7707;SDS011;3896;48.758;8.888;2023-05-16T06:45:27;31.00;;;19.33;;
7707;SDS011;3896;48.758;8.888;2023-05-16T06:47:53;33.50;;;19.73;;
7707;SDS011;3896;48.758;8.888;2023-05-16T06:50:19;26.87;;;17.97;;
7707;SDS011;3896;48.758;8.888;2023-05-16T06:52:45;31.60;;;19.23;;
7707;SDS011;3896;48.758;8.888;2023-05-16T06:55:11;26.40;;;16.67;;
7707;SDS011;3896;48.758;8.888;2023-05-16T06:57:36;26.33;;;17.63;;
7707;SDS011;3896;48.758;8.888;2023-05-16T07:00:02;23.47;;;15.20;;
7707;SDS011;3896;48.758;8.888;2023-05-16T07:02:28;21.77;;;14.53;;
7707;SDS011;3896;48.758;8.888;2023-05-16T07:04:53;22.97;;;14.17;;
7707;SDS011;3896;48.758;8.888;2023-05-16T07:07:19;23.10;;;13.47;;
7707;SDS011;3896;48.758;8.888;2023-05-16T07:09:45;21.60;;;13.47;;
7707;SDS011;3896;48.758;8.888;2023-05-16T07:12:10;21.50;;;12.33;;
7707;SDS011;3896;48.758;8.888;2023-05-16T07:14:36;18.70;;;12.57;;
7707;SDS011;3896;48.758;8.888;2023-05-16T07:17:01;20.03;;;12.37;;
7707;SDS011;3896;48.758;8.888;2023-05-16T07:19:27;19.53;;;12.50;;
7707;SDS011;3896;48.758;8.888;2023-05-16T07:21:53;19.37;;;13.23;;
7707;SDS011;3896;48.758;8.888;2023-05-16T07:24:18;20.93;;;13.37;;
7707;SDS011;3896;48.758;8.888;2023-05-16T07:26:44;24.67;;;14.37;;
7707;SDS011;3896;48.758;8.888;2023-05-16T07:29:09;22.43;;;13.23;;
7707;SDS011;3896;48.758;8.888;2023-05-16T07:31:35;21.97;;;13.77;;
7707;SDS011;3896;48.758;8.888;2023-05-16T07:34:01;21.93;;;13.67;;
7707;SDS011;3896;48.758;8.888;2023-05-16T07:36:26;22.13;;;13.67;;
7707;SDS011;3896;48.758;8.888;2023-05-16T07:38:52;18.33;;;11.17;;
7707;SDS011;3896;48.758;8.888;2023-05-16T07:41:18;17.53;;;10.57;;
7707;SDS011;3896;48.758;8.888;2023-05-16T07:43:43;17.40;;;11.43;;
7707;SDS011;3896;48.758;8.888;2023-05-16T07:46:09;15.13;;;10.40;;
7707;SDS011;3896;48.758;8.888;2023-05-16T07:48:35;15.70;;;10.87;;
7707;SDS011;3896;48.758;8.888;2023-05-16T07:51:01;12.90;;;9.10;;
7707;SDS011;3896;48.758;8.888;2023-05-16T07:53:26;15.87;;;10.17;;
7707;SDS011;3896;48.758;8.888;2023-05-16T07:55:52;25.33;;;16.13;;
7707;SDS011;3896;48.758;8.888;2023-05-16T07:58:17;17.17;;;11.73;;
7707;SDS011;3896;48.758;8.888;2023-05-16T08:00:43;14.70;;;10.33;;
7707;SDS011;3896;48.758;8.888;2023-05-16T08:03:09;15.47;;;10.40;;
7707;SDS011;3896;48.758;8.888;2023-05-16T08:05:35;16.47;;;9.63;;
7707;SDS011;3896;48.758;8.888;2023-05-16T08:08:01;14.27;;;9.47;;
7707;SDS011;3896;48.758;8.888;2023-05-16T08:10:26;14.37;;;9.93;;
7707;SDS011;3896;48.758;8.888;2023-05-16T08:12:52;13.60;;;9.50;;
7707;SDS011;3896;48.758;8.888;2023-05-16T08:15:17;15.43;;;10.40;;
7707;SDS011;3896;48.758;8.888;2023-05-16T08:17:43;15.60;;;10.47;;
7707;SDS011;3896;48.758;8.888;2023-05-16T08:20:09;15.10;;;10.80;;
7707;SDS011;3896;48.758;8.888;2023-05-16T08:22:35;14.90;;;10.63;;
7707;SDS011;3896;48.758;8.888;2023-05-16T08:25:01;14.97;;;11.13;;
7707;SDS011;3896;48.758;8.888;2023-05-16T08:27:26;19.33;;;12.07;;
7707;SDS011;3896;48.758;8.888;2023-05-16T08:29:52;17.03;;;11.43;;
7707;SDS011;3896;48.758;8.888;2023-05-16T08:32:17;19.50;;;11.47;;
7707;SDS011;3896;48.758;8.888;2023-05-16T08:34:43;20.83;;;13.27;;
7707;SDS011;3896;48.758;8.888;2023-05-16T08:37:08;20.80;;;12.97;;
7707;SDS011;3896;48.758;8.888;2023-05-16T08:39:34;18.90;;;13.20;;
7707;SDS011;3896;48.758;8.888;2023-05-16T08:42:02;18.57;;;12.23;;
7707;SDS011;3896;48.758;8.888;2023-05-16T08:44:29;19.07;;;13.20;;
7707;SDS011;3896;48.758;8.888;2023-05-16T08:46:54;24.13;;;14.60;;
7707;SDS011;3896;48.758;8.888;2023-05-16T08:49:21;23.93;;;15.67;;
7707;SDS011;3896;48.758;8.888;2023-05-16T08:51:51;19.93;;;12.60;;
7707;SDS011;3896;48.758;8.888;2023-05-16T08:54:21;23.53;;;14.20;;
7707;SDS011;3896;48.758;8.888;2023-05-16T08:56:47;27.20;;;14.13;;
7707;SDS011;3896;48.758;8.888;2023-05-16T08:59:14;24.90;;;14.30;;
7707;SDS011;3896;48.758;8.888;2023-05-16T09:01:40;22.57;;;14.47;;
7707;SDS011;3896;48.758;8.888;2023-05-16T09:04:06;22.27;;;14.60;;
7707;SDS011;3896;48.758;8.888;2023-05-16T09:06:34;21.83;;;15.03;;
7707;SDS011;3896;48.758;8.888;2023-05-16T09:09:03;21.27;;;12.90;;
7707;SDS011;3896;48.758;8.888;2023-05-16T09:11:31;22.97;;;13.70;;
7707;SDS011;3896;48.758;8.888;2023-05-16T09:13:57;23.37;;;14.80;;
7707;SDS011;3896;48.758;8.888;2023-05-16T09:16:23;21.27;;;12.90;;
7707;SDS011;3896;48.758;8.888;2023-05-16T09:18:53;22.43;;;14.13;;
7707;SDS011;3896;48.758;8.888;2023-05-16T09:21:21;21.47;;;13.43;;
7707;SDS011;3896;48.758;8.888;2023-05-16T09:23:48;26.10;;;14.13;;
7707;SDS011;3896;48.758;8.888;2023-05-16T09:26:15;23.10;;;14.47;;
7707;SDS011;3896;48.758;8.888;2023-05-16T09:28:40;22.23;;;13.47;;
7707;SDS011;3896;48.758;8.888;2023-05-16T09:31:19;20.43;;;13.27;;
7707;SDS011;3896;48.758;8.888;2023-05-16T09:33:50;18.70;;;12.23;;
7707;SDS011;3896;48.758;8.888;2023-05-16T09:36:22;22.40;;;12.70;;
7707;SDS011;3896;48.758;8.888;2023-05-16T09:38:52;25.10;;;14.97;;
7707;SDS011;3896;48.758;8.888;2023-05-16T09:41:18;24.27;;;13.97;;
7707;SDS011;3896;48.758;8.888;2023-05-16T09:43:46;21.30;;;14.43;;
7707;SDS011;3896;48.758;8.888;2023-05-16T09:46:14;19.30;;;11.93;;
7707;SDS011;3896;48.758;8.888;2023-05-16T09:48:43;23.60;;;14.33;;
7707;SDS011;3896;48.758;8.888;2023-05-16T09:51:10;19.70;;;12.27;;
7707;SDS011;3896;48.758;8.888;2023-05-16T09:53:37;15.40;;;10.87;;
7707;SDS011;3896;48.758;8.888;2023-05-16T09:56:07;17.53;;;9.90;;
7707;SDS011;3896;48.758;8.888;2023-05-16T09:58:35;16.80;;;11.03;;
7707;SDS011;3896;48.758;8.888;2023-05-16T10:01:05;15.03;;;10.73;;
7707;SDS011;3896;48.758;8.888;2023-05-16T10:03:36;14.97;;;10.80;;
7707;SDS011;3896;48.758;8.888;2023-05-16T10:06:03;16.57;;;9.27;;
7707;SDS011;3896;48.758;8.888;2023-05-16T10:08:31;14.10;;;9.33;;
7707;SDS011;3896;48.758;8.888;2023-05-16T10:11:00;13.40;;;9.47;;
7707;SDS011;3896;48.758;8.888;2023-05-16T10:13:31;16.40;;;10.03;;
7707;SDS011;3896;48.758;8.888;2023-05-16T10:15:58;12.87;;;9.63;;
7707;SDS011;3896;48.758;8.888;2023-05-16T10:18:31;15.23;;;9.57;;
7707;SDS011;3896;48.758;8.888;2023-05-16T10:21:02;12.40;;;8.60;;
7707;SDS011;3896;48.758;8.888;2023-05-16T10:23:30;14.90;;;9.93;;
7707;SDS011;3896;48.758;8.888;2023-05-16T10:25:57;11.13;;;7.97;;
7707;SDS011;3896;48.758;8.888;2023-05-16T10:28:25;11.50;;;7.97;;
7707;SDS011;3896;48.758;8.888;2023-05-16T10:30:52;10.23;;;7.00;;
7707;SDS011;3896;48.758;8.888;2023-05-16T10:33:18;11.63;;;6.77;;
7707;SDS011;3896;48.758;8.888;2023-05-16T10:35:44;11.37;;;8.03;;
7707;SDS011;3896;48.758;8.888;2023-05-16T10:38:11;10.70;;;7.10;;
7707;SDS011;3896;48.758;8.888;2023-05-16T10:40:40;13.80;;;7.87;;
7707;SDS011;3896;48.758;8.888;2023-05-16T10:43:07;12.83;;;7.70;;
7707;SDS011;3896;48.758;8.888;2023-05-16T10:45:34;11.50;;;6.47;;
7707;SDS011;3896;48.758;8.888;2023-05-16T10:48:09;10.00;;;6.23;;
7707;SDS011;3896;48.758;8.888;2023-05-16T10:50:40;9.70;;;6.50;;
7707;SDS011;3896;48.758;8.888;2023-05-16T10:58:23;6.13;;;4.67;;
7707;SDS011;3896;48.758;8.888;2023-05-16T11:01:14;5.00;;;3.50;;
7707;SDS011;3896;48.758;8.888;2023-05-16T11:09:07;5.53;;;4.77;;
7707;SDS011;3896;48.758;8.888;2023-05-16T11:14:23;3.53;;;3.00;;
7707;SDS011;3896;48.758;8.888;2023-05-16T11:17:02;4.77;;;3.93;;
7707;SDS011;3896;48.758;8.888;2023-05-16T11:27:24;5.93;;;4.37;;
7707;SDS011;3896;48.758;8.888;2023-05-16T11:29:54;7.57;;;5.27;;
7707;SDS011;3896;48.758;8.888;2023-05-16T11:32:41;6.57;;;5.70;;
7707;SDS011;3896;48.758;8.888;2023-05-16T11:35:12;7.67;;;5.40;;
7707;SDS011;3896;48.758;8.888;2023-05-16T11:37:39;6.80;;;5.53;;
7707;SDS011;3896;48.758;8.888;2023-05-16T11:40:06;8.23;;;5.57;;
7707;SDS011;3896;48.758;8.888;2023-05-16T11:42:43;7.13;;;5.23;;
7707;SDS011;3896;48.758;8.888;2023-05-16T11:45:15;6.17;;;5.07;;
7707;SDS011;3896;48.758;8.888;2023-05-16T11:47:49;7.90;;;5.30;;
7707;SDS011;3896;48.758;8.888;2023-05-16T11:50:16;6.10;;;5.23;;
7707;SDS011;3896;48.758;8.888;2023-05-16T11:52:47;5.80;;;5.07;;
7707;SDS011;3896;48.758;8.888;2023-05-16T11:55:17;7.17;;;4.60;;
7707;SDS011;3896;48.758;8.888;2023-05-16T11:57:45;5.73;;;5.13;;
7707;SDS011;3896;48.758;8.888;2023-05-16T12:00:18;5.17;;;4.33;;
7707;SDS011;3896;48.758;8.888;2023-05-16T12:02:46;5.43;;;4.60;;
7707;SDS011;3896;48.758;8.888;2023-05-16T12:05:12;5.33;;;4.27;;
7707;SDS011;3896;48.758;8.888;2023-05-16T12:07:39;4.20;;;3.60;;
7707;SDS011;3896;48.758;8.888;2023-05-16T12:10:06;5.80;;;4.07;;
7707;SDS011;3896;48.758;8.888;2023-05-16T12:12:33;4.60;;;4.07;;
7707;SDS011;3896;48.758;8.888;2023-05-16T12:14:59;2.53;;;2.33;;
7707;SDS011;3896;48.758;8.888;2023-05-16T12:17:27;2.90;;;1.77;;
7707;SDS011;3896;48.758;8.888;2023-05-16T12:19:53;1.77;;;1.63;;
7707;SDS011;3896;48.758;8.888;2023-05-16T12:22:19;1.70;;;1.60;;
7707;SDS011;3896;48.758;8.888;2023-05-16T12:24:45;1.50;;;1.40;;
7707;SDS011;3896;48.758;8.888;2023-05-16T12:27:10;1.30;;;1.20;;
7707;SDS011;3896;48.758;8.888;2023-05-16T12:29:36;1.40;;;1.30;;
7707;SDS011;3896;48.758;8.888;2023-05-16T12:32:02;1.50;;;1.40;;
7707;SDS011;3896;48.758;8.888;2023-05-16T12:34:31;1.53;;;1.43;;
7707;SDS011;3896;48.758;8.888;2023-05-16T12:36:57;1.10;;;1.10;;
7707;SDS011;3896;48.758;8.888;2023-05-16T12:39:25;1.17;;;1.17;;
7707;SDS011;3896;48.758;8.888;2023-05-16T12:41:50;1.87;;;1.77;;
7707;SDS011;3896;48.758;8.888;2023-05-16T12:44:16;1.63;;;1.53;;
7707;SDS011;3896;48.758;8.888;2023-05-16T12:46:46;1.87;;;1.77;;
7707;SDS011;3896;48.758;8.888;2023-05-16T12:49:19;2.07;;;1.97;;
7707;SDS011;3896;48.758;8.888;2023-05-16T12:51:48;3.07;;;2.00;;
7707;SDS011;3896;48.758;8.888;2023-05-16T12:54:15;1.77;;;1.67;;
7707;SDS011;3896;48.758;8.888;2023-05-16T12:56:40;2.60;;;1.97;;
7707;SDS011;3896;48.758;8.888;2023-05-16T12:59:06;2.77;;;2.17;;
7707;SDS011;3896;48.758;8.888;2023-05-16T13:01:33;2.00;;;1.90;;
7707;SDS011;3896;48.758;8.888;2023-05-16T13:04:02;3.30;;;2.40;;
7707;SDS011;3896;48.758;8.888;2023-05-16T13:06:28;3.03;;;2.03;;
7707;SDS011;3896;48.758;8.888;2023-05-16T13:08:54;3.20;;;2.13;;
7707;SDS011;3896;48.758;8.888;2023-05-16T13:11:20;2.30;;;2.10;;
7707;SDS011;3896;48.758;8.888;2023-05-16T13:13:45;4.10;;;2.47;;
7707;SDS011;3896;48.758;8.888;2023-05-16T13:16:11;5.07;;;2.60;;
7707;SDS011;3896;48.758;8.888;2023-05-16T13:18:37;2.17;;;2.07;;
7707;SDS011;3896;48.758;8.888;2023-05-16T13:21:02;3.57;;;2.07;;
7707;SDS011;3896;48.758;8.888;2023-05-16T13:23:28;3.57;;;2.17;;
7707;SDS011;3896;48.758;8.888;2023-05-16T13:25:54;3.17;;;1.90;;
7707;SDS011;3896;48.758;8.888;2023-05-16T13:28:20;2.40;;;1.80;;
7707;SDS011;3896;48.758;8.888;2023-05-16T13:30:45;3.33;;;2.00;;
7707;SDS011;3896;48.758;8.888;2023-05-16T13:33:11;6.10;;;2.50;;
7707;SDS011;3896;48.758;8.888;2023-05-16T13:35:37;2.50;;;2.30;;
7707;SDS011;3896;48.758;8.888;2023-05-16T13:38:02;2.23;;;1.90;;
7707;SDS011;3896;48.758;8.888;2023-05-16T13:40:28;2.83;;;1.53;;
7707;SDS011;3896;48.758;8.888;2023-05-16T13:42:54;1.70;;;1.60;;
7707;SDS011;3896;48.758;8.888;2023-05-16T13:45:20;2.93;;;2.10;;
7707;SDS011;3896;48.758;8.888;2023-05-16T13:47:46;2.17;;;1.97;;
7707;SDS011;3896;48.758;8.888;2023-05-16T13:50:12;1.80;;;1.70;;
7707;SDS011;3896;48.758;8.888;2023-05-16T13:52:37;2.80;;;1.73;;
7707;SDS011;3896;48.758;8.888;2023-05-16T13:55:03;2.50;;;1.77;;
7707;SDS011;3896;48.758;8.888;2023-05-16T13:57:29;2.67;;;1.60;;
7707;SDS011;3896;48.758;8.888;2023-05-16T13:59:55;3.10;;;1.53;;
7707;SDS011;3896;48.758;8.888;2023-05-16T14:02:21;1.80;;;1.70;;
7707;SDS011;3896;48.758;8.888;2023-05-16T14:04:46;2.80;;;1.93;;
7707;SDS011;3896;48.758;8.888;2023-05-16T14:07:12;1.43;;;1.33;;
7707;SDS011;3896;48.758;8.888;2023-05-16T14:09:38;2.20;;;1.60;;
7707;SDS011;3896;48.758;8.888;2023-05-16T14:12:04;1.63;;;1.53;;
7707;SDS011;3896;48.758;8.888;2023-05-16T14:14:31;2.10;;;1.70;;
7707;SDS011;3896;48.758;8.888;2023-05-16T14:16:58;3.90;;;1.40;;
7707;SDS011;3896;48.758;8.888;2023-05-16T14:19:23;2.40;;;1.80;;
7707;SDS011;3896;48.758;8.888;2023-05-16T14:21:50;2.83;;;1.90;;
7707;SDS011;3896;48.758;8.888;2023-05-16T14:24:15;2.73;;;1.90;;
7707;SDS011;3896;48.758;8.888;2023-05-16T14:26:41;1.73;;;1.50;;
7707;SDS011;3896;48.758;8.888;2023-05-16T14:29:06;1.43;;;1.30;;
7707;SDS011;3896;48.758;8.888;2023-05-16T14:31:32;2.03;;;1.70;;
7707;SDS011;3896;48.758;8.888;2023-05-16T14:34:00;1.40;;;1.30;;
7707;SDS011;3896;48.758;8.888;2023-05-16T14:36:25;2.00;;;1.90;;
7707;SDS011;3896;48.758;8.888;2023-05-16T14:38:51;2.20;;;1.77;;
7707;SDS011;3896;48.758;8.888;2023-05-16T14:41:16;2.77;;;2.10;;
7707;SDS011;3896;48.758;8.888;2023-05-16T14:43:43;2.87;;;1.97;;
7707;SDS011;3896;48.758;8.888;2023-05-16T14:46:09;2.40;;;1.40;;
7707;SDS011;3896;48.758;8.888;2023-05-16T14:48:35;3.63;;;1.60;;
7707;SDS011;3896;48.758;8.888;2023-05-16T14:51:00;1.67;;;1.57;;
7707;SDS011;3896;48.758;8.888;2023-05-16T14:53:26;2.90;;;1.73;;
7707;SDS011;3896;48.758;8.888;2023-05-16T14:55:51;3.47;;;1.60;;
7707;SDS011;3896;48.758;8.888;2023-05-16T14:58:17;1.83;;;1.60;;
7707;SDS011;3896;48.758;8.888;2023-05-16T15:00:42;2.00;;;1.90;;
7707;SDS011;3896;48.758;8.888;2023-05-16T15:03:08;3.93;;;1.97;;
7707;SDS011;3896;48.758;8.888;2023-05-16T15:05:33;4.83;;;1.80;;
7707;SDS011;3896;48.758;8.888;2023-05-16T15:07:59;2.17;;;1.97;;
7707;SDS011;3896;48.758;8.888;2023-05-16T15:10:25;3.63;;;1.90;;
7707;SDS011;3896;48.758;8.888;2023-05-16T15:12:51;3.93;;;2.50;;
7707;SDS011;3896;48.758;8.888;2023-05-16T15:15:17;4.87;;;1.90;;
7707;SDS011;3896;48.758;8.888;2023-05-16T15:17:42;1.60;;;1.50;;
7707;SDS011;3896;48.758;8.888;2023-05-16T15:20:08;2.57;;;1.63;;
7707;SDS011;3896;48.758;8.888;2023-05-16T15:22:35;3.17;;;1.57;;
7707;SDS011;3896;48.758;8.888;2023-05-16T15:25:02;2.60;;;1.53;;